sensor_id;sensor_type;location;lat;lon;timestamp;pressure;altitude;pressure_sealevel;temperature;humidity
24486;BME280;13449;49.374;8.584;2023-02-22T00:01:00;100442.22;;;3.14;100.00
24486;BME280;13449;49.374;8.584;2023-02-22T00:03:32;100450.31;;;3.14;100.00
24486;BME280;13449;49.374;8.584;2023-02-22T00:06:04;100440.94;;;3.08;100.00
24486;BME280;13449;49.374;8.584;2023-02-22T00:08:33;100434.97;;;3.05;100.00
24486;BME280;13449;49.374;8.584;2023-02-22T00:11:04;100435.38;;;3.00;100.00
24486;BME280;13449;49.374;8.584;2023-02-22T00:13:36;100432.56;;;3.02;100.00
24486;BME280;13449;49.374;8.584;2023-02-22T00:16:04;100433.41;;;3.02;100.00
24486;BME280;13449;49.374;8.584;2023-02-22T00:18:31;100417.13;;;3.04;100.00
24486;BME280;13449;49.374;8.584;2023-02-22T00:20:59;100421.09;;;3.19;100.00
24486;BME280;13449;49.374;8.584;2023-02-22T00:23:28;100421.78;;;3.02;100.00
24486;BME280;13449;49.374;8.584;2023-02-22T00:26:00;100415.72;;;3.00;100.00
24486;BME280;13449;49.374;8.584;2023-02-22T00:28:26;100422.38;;;2.96;100.00
24486;BME280;13449;49.374;8.584;2023-02-22T00:30:56;100415.84;;;2.98;100.00
24486;BME280;13449;49.374;8.584;2023-02-22T00:33:22;100411.75;;;3.04;100.00
24486;BME280;13449;49.374;8.584;2023-02-22T00:35:49;100404.50;;;2.95;100.00
24486;BME280;13449;49.374;8.584;2023-02-22T00:38:17;100399.97;;;2.95;100.00
24486;BME280;13449;49.374;8.584;2023-02-22T00:40:46;100397.41;;;2.93;100.00
24486;BME280;13449;49.374;8.584;2023-02-22T00:43:13;100405.19;;;2.87;100.00
24486;BME280;13449;49.374;8.584;2023-02-22T00:45:42;100404.63;;;2.83;100.00
24486;BME280;13449;49.374;8.584;2023-02-22T00:48:09;100400.94;;;2.84;100.00
24486;BME280;13449;49.374;8.584;2023-02-22T00:50:36;100399.53;;;2.80;100.00
24486;BME280;13449;49.374;8.584;2023-02-22T00:53:04;100404.31;;;2.77;100.00
24486;BME280;13449;49.374;8.584;2023-02-22T00:55:34;100400.91;;;2.75;100.00
24486;BME280;13449;49.374;8.584;2023-02-22T00:58:05;100396.50;;;2.74;100.00
24486;BME280;13449;49.374;8.584;2023-02-22T01:00:38;100396.78;;;2.71;100.00
24486;BME280;13449;49.374;8.584;2023-02-22T01:03:06;100403.03;;;2.71;100.00
24486;BME280;13449;49.374;8.584;2023-02-22T01:05:36;100393.53;;;2.67;100.00
24486;BME280;13449;49.374;8.584;2023-02-22T01:08:05;100394.50;;;2.66;100.00
24486;BME280;13449;49.374;8.584;2023-02-22T01:10:32;100386.75;;;2.73;100.00
24486;BME280;13449;49.374;8.584;2023-02-22T01:13:00;100386.75;;;2.73;100.00
24486;BME280;13449;49.374;8.584;2023-02-22T01:15:28;100387.03;;;2.70;100.00
24486;BME280;13449;49.374;8.584;2023-02-22T01:18:01;100381.78;;;2.68;100.00
24486;BME280;13449;49.374;8.584;2023-02-22T01:20:31;100379.38;;;2.65;100.00
24486;BME280;13449;49.374;8.584;2023-02-22T01:23:00;100380.47;;;2.63;100.00
24486;BME280;13449;49.374;8.584;2023-02-22T01:25:29;100383.03;;;2.64;100.00
24486;BME280;13449;49.374;8.584;2023-02-22T01:28:00;100380.34;;;2.64;100.00
24486;BME280;13449;49.374;8.584;2023-02-22T01:30:33;100376.22;;;2.60;100.00
24486;BME280;13449;49.374;8.584;2023-02-22T01:33:02;100384.28;;;2.60;100.00
24486;BME280;13449;49.374;8.584;2023-02-22T01:35:33;100374.25;;;2.62;100.00
24486;BME280;13449;49.374;8.584;2023-02-22T01:38:03;100372.97;;;2.57;100.00
24486;BME280;13449;49.374;8.584;2023-02-22T01:40:41;100374.38;;;2.61;100.00
24486;BME280;13449;49.374;8.584;2023-02-22T01:43:22;100374.09;;;2.54;100.00
24486;BME280;13449;49.374;8.584;2023-02-22T01:45:53;100370.38;;;2.55;100.00
24486;BME280;13449;49.374;8.584;2023-02-22T01:48:24;100370.25;;;2.57;100.00
24486;BME280;13449;49.374;8.584;2023-02-22T01:50:57;100364.63;;;2.69;100.00
24486;BME280;13449;49.374;8.584;2023-02-22T01:53:34;100369.69;;;2.63;100.00
24486;BME280;13449;49.374;8.584;2023-02-22T01:56:09;100370.16;;;2.68;100.00
24486;BME280;13449;49.374;8.584;2023-02-22T01:58:40;100365.63;;;2.68;100.00
24486;BME280;13449;49.374;8.584;2023-02-22T02:01:08;100361.94;;;2.69;100.00
24486;BME280;13449;49.374;8.584;2023-02-22T02:03:37;100362.94;;;2.68;100.00
24486;BME280;13449;49.374;8.584;2023-02-22T02:06:10;100353.56;;;2.63;100.00
24486;BME280;13449;49.374;8.584;2023-02-22T02:08:52;100349.59;;;2.57;100.00
24486;BME280;13449;49.374;8.584;2023-02-22T02:11:25;100350.72;;;2.55;100.00
24486;BME280;13449;49.374;8.584;2023-02-22T02:13:54;100362.06;;;2.58;100.00
24486;BME280;13449;49.374;8.584;2023-02-22T02:16:30;100355.25;;;2.54;100.00
24486;BME280;13449;49.374;8.584;2023-02-22T02:19:00;100351.84;;;2.52;100.00
24486;BME280;13449;49.374;8.584;2023-02-22T02:36:50;100338.19;;;2.34;100.00
24486;BME280;13449;49.374;8.584;2023-02-22T02:39:33;100342.31;;;2.38;100.00
24486;BME280;13449;49.374;8.584;2023-02-22T02:42:07;100330.13;;;2.34;100.00
24486;BME280;13449;49.374;8.584;2023-02-22T02:44:40;100335.50;;;2.34;100.00
24486;BME280;13449;49.374;8.584;2023-02-22T02:47:18;100333.22;;;2.30;100.00
24486;BME280;13449;49.374;8.584;2023-02-22T02:49:54;100325.03;;;2.31;100.00
24486;BME280;13449;49.374;8.584;2023-02-22T02:52:26;100331.53;;;2.29;100.00
24486;BME280;13449;49.374;8.584;2023-02-22T02:54:59;100330.81;;;2.27;100.00
24486;BME280;13449;49.374;8.584;2023-02-22T02:57:30;100325.44;;;2.27;100.00
24486;BME280;13449;49.374;8.584;2023-02-22T02:59:56;100327.44;;;2.25;100.00
24486;BME280;13449;49.374;8.584;2023-02-22T03:10:52;100322.56;;;2.19;100.00
24486;BME280;13449;49.374;8.584;2023-02-22T03:14:17;100312.09;;;2.16;100.00
24486;BME280;13449;49.374;8.584;2023-02-22T03:19:46;100307.97;;;2.12;100.00
24486;BME280;13449;49.374;8.584;2023-02-22T03:22:25;100314.91;;;2.14;100.00
24486;BME280;13449;49.374;8.584;2023-02-22T03:25:04;100313.38;;;2.21;100.00
24486;BME280;13449;49.374;8.584;2023-02-22T03:27:34;100314.91;;;2.14;100.00
24486;BME280;13449;49.374;8.584;2023-02-22T03:30:06;100310.72;;;2.31;100.00
24486;BME280;13449;49.374;8.584;2023-02-22T03:32:45;100306.31;;;2.20;100.00
24486;BME280;13449;49.374;8.584;2023-02-22T03:35:19;100304.19;;;2.24;100.00
24486;BME280;13449;49.374;8.584;2023-02-22T03:37:53;100305.91;;;2.25;100.00
24486;BME280;13449;49.374;8.584;2023-02-22T03:40:30;100304.59;;;2.19;100.00
24486;BME280;13449;49.374;8.584;2023-02-22T03:43:07;100305.59;;;2.18;100.00
24486;BME280;13449;49.374;8.584;2023-02-22T03:45:36;100304.03;;;2.25;100.00
24486;BME280;13449;49.374;8.584;2023-02-22T03:48:14;100301.75;;;2.11;100.00
24486;BME280;13449;49.374;8.584;2023-02-22T03:50:42;100300.78;;;2.12;100.00
24486;BME280;13449;49.374;8.584;2023-02-22T03:53:09;100299.47;;;2.07;100.00
24486;BME280;13449;49.374;8.584;2023-02-22T03:55:36;100297.34;;;2.10;100.00
24486;BME280;13449;49.374;8.584;2023-02-22T03:58:10;100296.94;;;2.05;100.00
24486;BME280;13449;49.374;8.584;2023-02-22T04:00:40;100294.53;;;2.02;100.00
24486;BME280;13449;49.374;8.584;2023-02-22T04:03:09;100298.03;;;2.03;100.00
24486;BME280;13449;49.374;8.584;2023-02-22T04:05:38;100292.97;;;2.09;100.00
24486;BME280;13449;49.374;8.584;2023-02-22T04:08:05;100303.31;;;2.14;100.00
24486;BME280;13449;49.374;8.584;2023-02-22T04:10:34;100298.75;;;2.05;100.00
24486;BME280;13449;49.374;8.584;2023-02-22T04:13:03;100292.53;;;2.04;100.00
24486;BME280;13449;49.374;8.584;2023-02-22T04:15:35;100296.63;;;1.99;100.00
24486;BME280;13449;49.374;8.584;2023-02-22T04:18:02;100305.28;;;2.02;100.00
24486;BME280;13449;49.374;8.584;2023-02-22T04:20:29;100299.03;;;2.02;100.00
24486;BME280;13449;49.374;8.584;2023-02-22T04:22:57;100303.69;;;2.00;100.00
24486;BME280;13449;49.374;8.584;2023-02-22T04:25:26;100302.00;;;1.99;100.00
24486;BME280;13449;49.374;8.584;2023-02-22T04:27:56;100301.41;;;1.95;100.00
24486;BME280;13449;49.374;8.584;2023-02-22T04:30:22;100309.22;;;1.98;100.00
24486;BME280;13449;49.374;8.584;2023-02-22T04:32:49;100315.88;;;2.04;100.00
24486;BME280;13449;49.374;8.584;2023-02-22T04:35:15;100309.63;;;1.93;100.00
24486;BME280;13449;49.374;8.584;2023-02-22T04:37:42;100309.75;;;1.92;100.00
24486;BME280;13449;49.374;8.584;2023-02-22T04:40:09;100308.06;;;1.91;100.00
24486;BME280;13449;49.374;8.584;2023-02-22T04:42:37;100308.06;;;1.91;100.00
24486;BME280;13449;49.374;8.584;2023-02-22T04:45:07;100310.28;;;1.86;100.00
24486;BME280;13449;49.374;8.584;2023-02-22T04:47:37;100304.19;;;1.84;100.00
24486;BME280;13449;49.374;8.584;2023-02-22T04:50:15;100311.00;;;1.88;100.00
24486;BME280;13449;49.374;8.584;2023-02-22T04:52:44;100304.06;;;1.85;100.00
24486;BME280;13449;49.374;8.584;2023-02-22T04:55:17;100299.09;;;1.81;100.00
24486;BME280;13449;49.374;8.584;2023-02-22T04:57:44;100306.03;;;1.83;100.00
24486;BME280;13449;49.374;8.584;2023-02-22T05:00:17;100301.38;;;1.85;100.00
24486;BME280;13449;49.374;8.584;2023-02-22T05:02:44;100302.63;;;1.81;100.00
24486;BME280;13449;49.374;8.584;2023-02-22T05:05:19;100296.44;;;1.90;100.00
24486;BME280;13449;49.374;8.584;2023-02-22T05:07:49;100303.50;;;1.91;100.00
24486;BME280;13449;49.374;8.584;2023-02-22T05:10:16;100296.19;;;1.93;100.00
24486;BME280;13449;49.374;8.584;2023-02-22T05:12:43;100302.22;;;1.86;100.00
24486;BME280;13449;49.374;8.584;2023-02-22T05:15:10;100292.06;;;1.99;100.00
24486;BME280;13449;49.374;8.584;2023-02-22T05:17:36;100296.38;;;2.11;100.00
24486;BME280;13449;49.374;8.584;2023-02-22T05:20:03;100303.56;;;2.01;100.00
24486;BME280;13449;49.374;8.584;2023-02-22T05:22:35;100294.75;;;1.89;100.00
24486;BME280;13449;49.374;8.584;2023-02-22T05:25:09;100299.41;;;1.87;100.00
24486;BME280;13449;49.374;8.584;2023-02-22T05:27:36;100293.13;;;1.77;100.00
24486;BME280;13449;49.374;8.584;2023-02-22T05:30:06;100292.16;;;1.78;100.00
24486;BME280;13449;49.374;8.584;2023-02-22T05:32:34;100293.41;;;1.74;100.00
24486;BME280;13449;49.374;8.584;2023-02-22T05:35:01;100280.53;;;1.68;100.00
24486;BME280;13449;49.374;8.584;2023-02-22T05:37:27;100288.56;;;1.68;100.00
24486;BME280;13449;49.374;8.584;2023-02-22T05:39:54;100283.31;;;1.67;100.00
24486;BME280;13449;49.374;8.584;2023-02-22T05:42:21;100282.84;;;1.82;100.00
24486;BME280;13449;49.374;8.584;2023-02-22T05:44:55;100284.84;;;1.90;100.00
24486;BME280;13449;49.374;8.584;2023-02-22T05:47:22;100285.63;;;1.81;100.00
24486;BME280;13449;49.374;8.584;2023-02-22T05:49:48;100279.25;;;1.72;100.00
24486;BME280;13449;49.374;8.584;2023-02-22T05:52:16;100283.44;;;1.65;100.00
24486;BME280;13449;49.374;8.584;2023-02-22T05:54:43;100279.50;;;1.69;100.00
24486;BME280;13449;49.374;8.584;2023-02-22T05:57:09;100277.81;;;1.68;100.00
24486;BME280;13449;49.374;8.584;2023-02-22T05:59:36;100287.56;;;1.69;100.00
24486;BME280;13449;49.374;8.584;2023-02-22T06:02:05;100281.03;;;1.62;100.00
24486;BME280;13449;49.374;8.584;2023-02-22T06:04:31;100281.50;;;1.67;100.00
24486;BME280;13449;49.374;8.584;2023-02-22T06:06:58;100279.78;;;1.66;100.00
24486;BME280;13449;49.374;8.584;2023-02-22T06:09:24;100280.19;;;1.62;100.00
24486;BME280;13449;49.374;8.584;2023-02-22T06:11:51;100272.00;;;1.63;100.00
24486;BME280;13449;49.374;8.584;2023-02-22T06:14:19;100271.41;;;1.60;100.00
24486;BME280;13449;49.374;8.584;2023-02-22T06:16:54;100286.41;;;1.62;100.00
24486;BME280;13449;49.374;8.584;2023-02-22T06:19:22;100281.00;;;1.83;100.00
24486;BME280;13449;49.374;8.584;2023-02-22T06:21:50;100284.25;;;1.86;100.00
24486;BME280;13449;49.374;8.584;2023-02-22T06:24:17;100286.47;;;1.72;100.00
24486;BME280;13449;49.374;8.584;2023-02-22T06:26:43;100294.09;;;1.76;100.00
24486;BME280;13449;49.374;8.584;2023-02-22T06:29:10;100293.28;;;1.76;100.00
24486;BME280;13449;49.374;8.584;2023-02-22T06:31:37;100298.78;;;1.74;100.00
24486;BME280;13449;49.374;8.584;2023-02-22T06:34:03;100303.19;;;1.75;100.00
24486;BME280;13449;49.374;8.584;2023-02-22T06:36:30;100305.88;;;1.75;100.00
24486;BME280;13449;49.374;8.584;2023-02-22T06:38:57;100310.09;;;1.78;100.00
24486;BME280;13449;49.374;8.584;2023-02-22T06:41:23;100311.94;;;1.77;100.00
24486;BME280;13449;49.374;8.584;2023-02-22T06:43:49;100310.84;;;1.80;100.00
24486;BME280;13449;49.374;8.584;2023-02-22T06:46:16;100311.53;;;1.82;100.00
24486;BME280;13449;49.374;8.584;2023-02-22T06:48:43;100315.66;;;1.86;100.00
24486;BME280;13449;49.374;8.584;2023-02-22T06:51:09;100322.03;;;1.85;100.00
24486;BME280;13449;49.374;8.584;2023-02-22T06:53:36;100314.13;;;1.93;100.00
24486;BME280;13449;49.374;8.584;2023-02-22T06:56:03;100323.91;;;1.94;100.00
24486;BME280;13449;49.374;8.584;2023-02-22T06:58:29;100332.56;;;1.98;100.00
24486;BME280;13449;49.374;8.584;2023-02-22T07:00:56;100328.88;;;1.99;100.00
24486;BME280;13449;49.374;8.584;2023-02-22T07:03:22;100329.31;;;2.04;100.00
24486;BME280;13449;49.374;8.584;2023-02-22T07:05:49;100332.19;;;2.12;100.00
24486;BME280;13449;49.374;8.584;2023-02-22T07:08:15;100330.53;;;2.20;100.00
24486;BME280;13449;49.374;8.584;2023-02-22T07:10:42;100333.63;;;2.25;100.00
24486;BME280;13449;49.374;8.584;2023-02-22T07:13:08;100330.13;;;2.34;100.00
24486;BME280;13449;49.374;8.584;2023-02-22T07:15:35;100337.41;;;2.43;100.00
24486;BME280;13449;49.374;8.584;2023-02-22T07:18:08;100336.25;;;2.56;100.00
24486;BME280;13449;49.374;8.584;2023-02-22T07:20:42;100338.56;;;2.70;100.00
24486;BME280;13449;49.374;8.584;2023-02-22T07:23:09;100332.63;;;2.85;100.00
24486;BME280;13449;49.374;8.584;2023-02-22T07:25:35;100328.69;;;2.99;100.00
24486;BME280;13449;49.374;8.584;2023-02-22T07:28:02;100327.38;;;3.13;100.00
24486;BME280;13449;49.374;8.584;2023-02-22T07:30:31;100327.53;;;3.21;100.00
24486;BME280;13449;49.374;8.584;2023-02-22T07:33:00;100335.16;;;3.35;100.00
24486;BME280;13449;49.374;8.584;2023-02-22T07:35:30;100331.34;;;3.47;100.00
24486;BME280;13449;49.374;8.584;2023-02-22T07:38:08;100329.03;;;3.62;100.00
24486;BME280;13449;49.374;8.584;2023-02-22T07:40:36;100332.97;;;3.77;100.00
24486;BME280;13449;49.374;8.584;2023-02-22T07:43:04;100336.88;;;3.92;100.00
24486;BME280;13449;49.374;8.584;2023-02-22T07:45:34;100331.25;;;4.13;100.00
24486;BME280;13449;49.374;8.584;2023-02-22T07:48:07;100325.28;;;4.19;100.00
24486;BME280;13449;49.374;8.584;2023-02-22T07:50:42;100336.44;;;4.33;100.00
24486;BME280;13449;49.374;8.584;2023-02-22T07:53:18;100325.66;;;4.51;100.00
24486;BME280;13449;49.374;8.584;2023-02-22T07:55:45;100327.31;;;4.62;100.00
24486;BME280;13449;49.374;8.584;2023-02-22T07:58:18;100329.66;;;4.74;100.00
24486;BME280;13449;49.374;8.584;2023-02-22T08:00:46;100325.41;;;4.90;100.00
24486;BME280;13449;49.374;8.584;2023-02-22T08:03:16;100319.78;;;5.01;100.00
24486;BME280;13449;49.374;8.584;2023-02-22T08:05:48;100318.69;;;5.11;100.00
24486;BME280;13449;49.374;8.584;2023-02-22T08:08:15;100323.19;;;5.20;100.00
24486;BME280;13449;49.374;8.584;2023-02-22T08:10:45;100326.50;;;5.32;100.00
24486;BME280;13449;49.374;8.584;2023-02-22T08:13:12;100322.69;;;5.43;100.00
24486;BME280;13449;49.374;8.584;2023-02-22T08:15:44;100327.13;;;5.52;100.00
24486;BME280;13449;49.374;8.584;2023-02-22T08:18:17;100323.09;;;5.73;100.00
24486;BME280;13449;49.374;8.584;2023-02-22T08:20:47;100326.53;;;5.83;100.00
24486;BME280;13449;49.374;8.584;2023-02-22T08:23:15;100325.44;;;5.94;100.00
24486;BME280;13449;49.374;8.584;2023-02-22T08:25:42;100326.00;;;6.06;100.00
24486;BME280;13449;49.374;8.584;2023-02-22T08:28:12;100317.09;;;6.13;100.00
24486;BME280;13449;49.374;8.584;2023-02-22T08:30:41;100321.00;;;6.19;100.00
24486;BME280;13449;49.374;8.584;2023-02-22T08:33:12;100329.38;;;6.34;100.00
24486;BME280;13449;49.374;8.584;2023-02-22T08:35:49;100330.59;;;6.47;97.29
24486;BME280;13449;49.374;8.584;2023-02-22T08:38:26;100331.81;;;6.61;97.81
24486;BME280;13449;49.374;8.584;2023-02-22T08:40:54;100331.38;;;6.73;95.12
24486;BME280;13449;49.374;8.584;2023-02-22T08:43:23;100327.00;;;6.89;95.54
24486;BME280;13449;49.374;8.584;2023-02-22T08:45:50;100328.38;;;7.01;93.69
24486;BME280;13449;49.374;8.584;2023-02-22T08:48:35;100326.19;;;7.04;92.06
24486;BME280;13449;49.374;8.584;2023-02-22T08:51:08;100329.22;;;7.09;91.51
24486;BME280;13449;49.374;8.584;2023-02-22T08:53:44;100324.66;;;7.18;90.81
24486;BME280;13449;49.374;8.584;2023-02-22T08:56:15;100321.97;;;7.26;90.29
24486;BME280;13449;49.374;8.584;2023-02-22T08:58:41;100333.16;;;7.39;88.62
24486;BME280;13449;49.374;8.584;2023-02-22T09:01:11;100332.13;;;7.48;89.08
24486;BME280;13449;49.374;8.584;2023-02-22T09:03:47;100336.88;;;7.54;87.80
24486;BME280;13449;49.374;8.584;2023-02-22T09:06:17;100344.00;;;7.55;85.82
24486;BME280;13449;49.374;8.584;2023-02-22T09:08:47;100335.66;;;7.65;85.95
24486;BME280;13449;49.374;8.584;2023-02-22T09:11:16;100333.81;;;7.73;85.31
24486;BME280;13449;49.374;8.584;2023-02-22T09:13:44;100326.00;;;7.78;84.67
24486;BME280;13449;49.374;8.584;2023-02-22T09:16:11;100328.88;;;7.85;84.04
24486;BME280;13449;49.374;8.584;2023-02-22T09:18:41;100321.06;;;7.90;84.38
24486;BME280;13449;49.374;8.584;2023-02-22T09:21:12;100328.38;;;7.90;82.89
24486;BME280;13449;49.374;8.584;2023-02-22T09:23:40;100331.59;;;7.93;82.70
24486;BME280;13449;49.374;8.584;2023-02-22T09:26:08;100333.44;;;8.01;82.10
24486;BME280;13449;49.374;8.584;2023-02-22T09:28:35;100320.84;;;8.16;82.71
24486;BME280;13449;49.374;8.584;2023-02-22T09:31:09;100321.31;;;8.27;81.50
24486;BME280;13449;49.374;8.584;2023-02-22T09:33:35;100318.09;;;8.32;81.92
24486;BME280;13449;49.374;8.584;2023-02-22T09:36:05;100325.91;;;8.35;80.53
24486;BME280;13449;49.374;8.584;2023-02-22T09:38:35;100327.88;;;8.49;78.82
24486;BME280;13449;49.374;8.584;2023-02-22T09:41:25;100322.00;;;8.68;80.15
24486;BME280;13449;49.374;8.584;2023-02-22T09:46:52;100320.75;;;8.79;76.91
24486;BME280;13449;49.374;8.584;2023-02-22T09:49:29;100311.81;;;8.93;77.30
24486;BME280;13449;49.374;8.584;2023-02-22T09:52:11;100306.44;;;9.08;77.64
24486;BME280;13449;49.374;8.584;2023-02-22T09:54:44;100326.78;;;9.20;75.06
24486;BME280;13449;49.374;8.584;2023-02-22T09:57:25;100310.03;;;9.31;75.97
24486;BME280;13449;49.374;8.584;2023-02-22T10:02:29;100314.31;;;9.48;73.54
24486;BME280;13449;49.374;8.584;2023-02-22T10:05:11;100314.78;;;9.52;73.57
24486;BME280;13449;49.374;8.584;2023-02-22T10:07:53;100313.19;;;9.57;73.11
24486;BME280;13449;49.374;8.584;2023-02-22T10:10:23;100320.16;;;9.60;71.47
24486;BME280;13449;49.374;8.584;2023-02-22T10:13:04;100298.91;;;9.78;73.15
24486;BME280;13449;49.374;8.584;2023-02-22T10:15:50;100326.41;;;9.83;71.13
24486;BME280;13449;49.374;8.584;2023-02-22T10:22:02;100330.28;;;10.03;68.96
24486;BME280;13449;49.374;8.584;2023-02-22T10:24:46;100313.97;;;10.18;70.37
24486;BME280;13449;49.374;8.584;2023-02-22T10:27:33;100309.00;;;10.36;70.16
24486;BME280;13449;49.374;8.584;2023-02-22T10:30:20;100313.88;;;10.41;69.62
24486;BME280;13449;49.374;8.584;2023-02-22T10:32:56;100322.03;;;10.55;67.52
24486;BME280;13449;49.374;8.584;2023-02-22T10:35:35;100320.41;;;10.61;68.45
24486;BME280;13449;49.374;8.584;2023-02-22T10:38:23;100314.66;;;10.85;68.31
24486;BME280;13449;49.374;8.584;2023-02-22T10:40:55;100326.31;;;10.94;67.63
24486;BME280;13449;49.374;8.584;2023-02-22T10:43:23;100320.13;;;11.06;66.87
24486;BME280;13449;49.374;8.584;2023-02-22T10:45:55;100318.59;;;11.19;66.99
24486;BME280;13449;49.374;8.584;2023-02-22T10:48:28;100310.09;;;11.28;66.77
24486;BME280;13449;49.374;8.584;2023-02-22T10:51:03;100319.81;;;11.37;66.11
24486;BME280;13449;49.374;8.584;2023-02-22T10:53:37;100319.06;;;11.43;66.01
24486;BME280;13449;49.374;8.584;2023-02-22T10:58:40;100308.97;;;11.65;65.78
24486;BME280;13449;49.374;8.584;2023-02-22T11:01:17;100300.00;;;11.71;65.73
24486;BME280;13449;49.374;8.584;2023-02-22T11:04:11;100330.03;;;11.71;64.79
24486;BME280;13449;49.374;8.584;2023-02-22T11:06:44;100316.88;;;11.81;64.80
24486;BME280;13449;49.374;8.584;2023-02-22T11:09:20;100319.44;;;11.83;63.47
24486;BME280;13449;49.374;8.584;2023-02-22T11:11:50;100310.09;;;11.98;64.30
24486;BME280;13449;49.374;8.584;2023-02-22T11:14:37;100320.22;;;12.04;62.81
24486;BME280;13449;49.374;8.584;2023-02-22T11:17:06;100298.22;;;12.19;65.40
24486;BME280;13449;49.374;8.584;2023-02-22T11:19:34;100304.06;;;12.09;64.67
24486;BME280;13449;49.374;8.584;2023-02-22T11:22:12;100314.47;;;12.27;63.10
24486;BME280;13449;49.374;8.584;2023-02-22T11:24:52;100293.97;;;12.44;63.93
24486;BME280;13449;49.374;8.584;2023-02-22T11:27:34;100277.88;;;12.69;64.68
24486;BME280;13449;49.374;8.584;2023-02-22T11:30:30;100272.84;;;12.79;65.73
24486;BME280;13449;49.374;8.584;2023-02-22T11:33:17;100315.41;;;12.82;62.11
24486;BME280;13449;49.374;8.584;2023-02-22T11:35:57;100293.53;;;12.88;63.04
24486;BME280;13449;49.374;8.584;2023-02-22T11:38:30;100268.28;;;12.99;64.14
24486;BME280;13449;49.374;8.584;2023-02-22T11:41:17;100278.56;;;12.84;63.67
24486;BME280;13449;49.374;8.584;2023-02-22T11:43:49;100290.00;;;13.07;63.13
24486;BME280;13449;49.374;8.584;2023-02-22T11:46:21;100253.41;;;13.15;63.63
24486;BME280;13449;49.374;8.584;2023-02-22T11:49:04;100249.59;;;13.10;64.32
24486;BME280;13449;49.374;8.584;2023-02-22T12:11:49;100217.78;;;13.61;64.15
24486;BME280;13449;49.374;8.584;2023-02-22T12:14:37;100233.63;;;13.52;62.38
24486;BME280;13449;49.374;8.584;2023-02-22T12:17:28;100239.31;;;13.51;62.07
24486;BME280;13449;49.374;8.584;2023-02-22T12:20:17;100227.06;;;13.53;62.74
24486;BME280;13449;49.374;8.584;2023-02-22T12:23:12;100220.75;;;13.66;63.72
24486;BME280;13449;49.374;8.584;2023-02-22T12:26:00;100204.31;;;13.66;64.30
24486;BME280;13449;49.374;8.584;2023-02-22T12:28:39;100219.06;;;13.72;63.29
24486;BME280;13449;49.374;8.584;2023-02-22T12:31:12;100202.19;;;13.81;64.32
24486;BME280;13449;49.374;8.584;2023-02-22T12:33:47;100232.94;;;13.77;61.91
24486;BME280;13449;49.374;8.584;2023-02-22T12:36:23;100242.44;;;13.81;61.38
24486;BME280;13449;49.374;8.584;2023-02-22T12:38:58;100215.69;;;13.83;62.98
24486;BME280;13449;49.374;8.584;2023-02-22T12:41:32;100199.81;;;13.91;63.55
24486;BME280;13449;49.374;8.584;2023-02-22T12:44:19;100233.97;;;13.95;61.13
24486;BME280;13449;49.374;8.584;2023-02-22T12:46:54;100204.00;;;14.07;63.31
24486;BME280;13449;49.374;8.584;2023-02-22T12:52:14;100190.53;;;13.99;63.70
24486;BME280;13449;49.374;8.584;2023-02-22T12:54:56;100204.47;;;13.97;62.60
24486;BME280;13449;49.374;8.584;2023-02-22T12:57:44;100202.09;;;14.08;62.99
24486;BME280;13449;49.374;8.584;2023-02-22T13:00:38;100220.44;;;14.07;61.56
24486;BME280;13449;49.374;8.584;2023-02-22T13:06:09;100208.88;;;14.05;61.91
24486;BME280;13449;49.374;8.584;2023-02-22T13:15:03;100199.84;;;13.98;61.78
24486;BME280;13449;49.374;8.584;2023-02-22T13:17:53;100175.97;;;14.05;62.91
24486;BME280;13449;49.374;8.584;2023-02-22T13:23:08;100186.44;;;14.21;61.66
24486;BME280;13449;49.374;8.584;2023-02-22T13:25:49;100192.56;;;14.23;61.58
24486;BME280;13449;49.374;8.584;2023-02-22T13:39:43;100201.59;;;14.30;60.16
24486;BME280;13449;49.374;8.584;2023-02-22T13:50:40;100191.13;;;14.21;59.97
24486;BME280;13449;49.374;8.584;2023-02-22T13:53:19;100184.78;;;14.20;60.95
24486;BME280;13449;49.374;8.584;2023-02-22T13:55:54;100174.66;;;14.21;61.03
24486;BME280;13449;49.374;8.584;2023-02-22T13:58:23;100204.81;;;14.14;59.49
24486;BME280;13449;49.374;8.584;2023-02-22T14:00:55;100163.47;;;14.16;61.39
24486;BME280;13449;49.374;8.584;2023-02-22T14:03:34;100156.34;;;14.08;60.95
24486;BME280;13449;49.374;8.584;2023-02-22T14:06:08;100184.81;;;14.07;59.63
24486;BME280;13449;49.374;8.584;2023-02-22T14:16:29;100170.50;;;13.98;60.37
24486;BME280;13449;49.374;8.584;2023-02-22T14:19:22;100164.38;;;14.03;60.32
24486;BME280;13449;49.374;8.584;2023-02-22T14:21:58;100186.72;;;14.00;58.95
24486;BME280;13449;49.374;8.584;2023-02-22T14:24:40;100192.88;;;14.02;58.65
24486;BME280;13449;49.374;8.584;2023-02-22T14:27:08;100183.38;;;13.98;59.09
24486;BME280;13449;49.374;8.584;2023-02-22T14:29:35;100169.03;;;13.96;60.12
24486;BME280;13449;49.374;8.584;2023-02-22T14:32:09;100159.97;;;13.95;59.98
24486;BME280;13449;49.374;8.584;2023-02-22T14:34:53;100178.50;;;14.00;59.04
24486;BME280;13449;49.374;8.584;2023-02-22T14:37:26;100183.59;;;13.96;58.87
24486;BME280;13449;49.374;8.584;2023-02-22T14:40:01;100173.66;;;13.95;59.02
24486;BME280;13449;49.374;8.584;2023-02-22T14:42:44;100173.03;;;14.00;59.77
24486;BME280;13449;49.374;8.584;2023-02-22T14:45:29;100196.66;;;14.01;57.09
24486;BME280;13449;49.374;8.584;2023-02-22T14:48:23;100196.84;;;13.99;57.36
24486;BME280;13449;49.374;8.584;2023-02-22T14:50:56;100194.13;;;13.93;58.12
24486;BME280;13449;49.374;8.584;2023-02-22T14:53:46;100192.00;;;13.95;58.01
24486;BME280;13449;49.374;8.584;2023-02-22T15:01:45;100198.56;;;13.94;56.80
24486;BME280;13449;49.374;8.584;2023-02-22T15:04:34;100204.69;;;13.89;56.88